sensor_id;sensor_type;location;lat;lon;timestamp;P1;durP1;ratioP1;P2;durP2;ratioP2
12511;SDS011;6321;53.798;10.382;2022-09-09T00:04:01;58.93;;;31.97;;
12511;SDS011;6321;53.798;10.382;2022-09-09T00:06:30;62.37;;;32.63;;
12511;SDS011;6321;53.798;10.382;2022-09-09T00:09:02;58.67;;;33.13;;
12511;SDS011;6321;53.798;10.382;2022-09-09T00:12:14;60.63;;;33.90;;
12511;SDS011;6321;53.798;10.382;2022-09-09T00:16:55;65.27;;;34.63;;
12511;SDS011;6321;53.798;10.382;2022-09-09T00:19:24;60.30;;;33.87;;
12511;SDS011;6321;53.798;10.382;2022-09-09T00:22:15;61.80;;;33.97;;
12511;SDS011;6321;53.798;10.382;2022-09-09T00:24:44;63.77;;;35.73;;
12511;SDS011;6321;53.798;10.382;2022-09-09T00:27:15;58.83;;;32.63;;
12511;SDS011;6321;53.798;10.382;2022-09-09T00:29:47;58.33;;;32.73;;
12511;SDS011;6321;53.798;10.382;2022-09-09T00:32:19;58.47;;;35.07;;
12511;SDS011;6321;53.798;10.382;2022-09-09T00:34:56;55.40;;;33.93;;
12511;SDS011;6321;53.798;10.382;2022-09-09T00:37:25;56.13;;;32.33;;
12511;SDS011;6321;53.798;10.382;2022-09-09T00:39:53;50.80;;;31.97;;
12511;SDS011;6321;53.798;10.382;2022-09-09T00:42:41;59.20;;;32.30;;
12511;SDS011;6321;53.798;10.382;2022-09-09T00:47:52;50.13;;;31.90;;
12511;SDS011;6321;53.798;10.382;2022-09-09T00:58:06;52.97;;;32.43;;
12511;SDS011;6321;53.798;10.382;2022-09-09T01:00:40;50.57;;;31.53;;
12511;SDS011;6321;53.798;10.382;2022-09-09T01:06:18;53.80;;;33.20;;
12511;SDS011;6321;53.798;10.382;2022-09-09T01:08:54;57.20;;;33.37;;
12511;SDS011;6321;53.798;10.382;2022-09-09T01:14:10;63.80;;;35.97;;
12511;SDS011;6321;53.798;10.382;2022-09-09T01:16:39;58.63;;;34.60;;
12511;SDS011;6321;53.798;10.382;2022-09-09T01:19:07;62.43;;;35.07;;
12511;SDS011;6321;53.798;10.382;2022-09-09T01:21:47;65.70;;;35.23;;
12511;SDS011;6321;53.798;10.382;2022-09-09T01:25:07;64.47;;;36.80;;
12511;SDS011;6321;53.798;10.382;2022-09-09T01:27:05;60.10;;;35.00;;
12511;SDS011;6321;53.798;10.382;2022-09-09T01:29:33;59.07;;;35.10;;
12511;SDS011;6321;53.798;10.382;2022-09-09T01:32:37;61.23;;;35.57;;
12511;SDS011;6321;53.798;10.382;2022-09-09T01:34:51;66.87;;;34.23;;
12511;SDS011;6321;53.798;10.382;2022-09-09T01:37:18;68.63;;;37.57;;
12511;SDS011;6321;53.798;10.382;2022-09-09T01:39:45;67.93;;;34.40;;
12511;SDS011;6321;53.798;10.382;2022-09-09T01:42:13;70.33;;;35.63;;
12511;SDS011;6321;53.798;10.382;2022-09-09T01:44:41;61.37;;;35.00;;
12511;SDS011;6321;53.798;10.382;2022-09-09T01:47:08;59.43;;;34.87;;
12511;SDS011;6321;53.798;10.382;2022-09-09T01:49:35;57.27;;;33.47;;
12511;SDS011;6321;53.798;10.382;2022-09-09T01:52:02;52.73;;;32.20;;
12511;SDS011;6321;53.798;10.382;2022-09-09T01:54:31;50.50;;;32.67;;
12511;SDS011;6321;53.798;10.382;2022-09-09T02:02:13;56.33;;;31.97;;
12511;SDS011;6321;53.798;10.382;2022-09-09T02:09:40;54.60;;;31.83;;
12511;SDS011;6321;53.798;10.382;2022-09-09T02:12:11;51.80;;;31.60;;
12511;SDS011;6321;53.798;10.382;2022-09-09T02:14:41;51.13;;;30.87;;
12511;SDS011;6321;53.798;10.382;2022-09-09T02:17:13;46.13;;;29.03;;
12511;SDS011;6321;53.798;10.382;2022-09-09T02:19:44;45.33;;;29.10;;
12511;SDS011;6321;53.798;10.382;2022-09-09T02:22:13;47.30;;;28.37;;
12511;SDS011;6321;53.798;10.382;2022-09-09T02:24:42;46.07;;;29.17;;
12511;SDS011;6321;53.798;10.382;2022-09-09T02:27:11;47.57;;;29.47;;
12511;SDS011;6321;53.798;10.382;2022-09-09T02:29:40;50.83;;;27.93;;
12511;SDS011;6321;53.798;10.382;2022-09-09T02:32:11;42.37;;;28.43;;
12511;SDS011;6321;53.798;10.382;2022-09-09T02:34:42;42.57;;;28.63;;
12511;SDS011;6321;53.798;10.382;2022-09-09T02:37:10;41.17;;;26.97;;
12511;SDS011;6321;53.798;10.382;2022-09-09T02:39:38;38.93;;;27.43;;
12511;SDS011;6321;53.798;10.382;2022-09-09T02:42:05;40.43;;;27.70;;
12511;SDS011;6321;53.798;10.382;2022-09-09T02:44:33;42.40;;;27.70;;
12511;SDS011;6321;53.798;10.382;2022-09-09T02:50:05;43.43;;;28.67;;
12511;SDS011;6321;53.798;10.382;2022-09-09T02:52:37;39.60;;;26.87;;
12511;SDS011;6321;53.798;10.382;2022-09-09T02:55:07;38.63;;;26.17;;
12511;SDS011;6321;53.798;10.382;2022-09-09T02:57:37;37.27;;;24.47;;
12511;SDS011;6321;53.798;10.382;2022-09-09T03:00:06;43.10;;;28.33;;
12511;SDS011;6321;53.798;10.382;2022-09-09T03:02:33;42.87;;;28.93;;
12511;SDS011;6321;53.798;10.382;2022-09-09T03:05:00;43.90;;;28.73;;
12511;SDS011;6321;53.798;10.382;2022-09-09T03:07:27;43.73;;;27.43;;
12511;SDS011;6321;53.798;10.382;2022-09-09T03:09:54;40.07;;;26.00;;
12511;SDS011;6321;53.798;10.382;2022-09-09T03:12:23;39.47;;;26.50;;
12511;SDS011;6321;53.798;10.382;2022-09-09T03:14:50;42.60;;;27.37;;
12511;SDS011;6321;53.798;10.382;2022-09-09T03:17:18;41.40;;;27.73;;
12511;SDS011;6321;53.798;10.382;2022-09-09T03:19:45;39.33;;;26.73;;
12511;SDS011;6321;53.798;10.382;2022-09-09T03:22:14;39.40;;;25.07;;
12511;SDS011;6321;53.798;10.382;2022-09-09T03:24:41;39.47;;;26.73;;
12511;SDS011;6321;53.798;10.382;2022-09-09T03:27:08;35.87;;;25.33;;
12511;SDS011;6321;53.798;10.382;2022-09-09T03:29:35;38.43;;;24.67;;
12511;SDS011;6321;53.798;10.382;2022-09-09T03:32:02;35.43;;;24.87;;
12511;SDS011;6321;53.798;10.382;2022-09-09T03:34:29;38.10;;;26.57;;
12511;SDS011;6321;53.798;10.382;2022-09-09T03:36:57;39.63;;;25.53;;
12511;SDS011;6321;53.798;10.382;2022-09-09T03:39:24;39.23;;;25.73;;
12511;SDS011;6321;53.798;10.382;2022-09-09T03:41:51;34.70;;;24.40;;
12511;SDS011;6321;53.798;10.382;2022-09-09T03:44:18;34.67;;;25.20;;
12511;SDS011;6321;53.798;10.382;2022-09-09T03:46:45;41.93;;;25.83;;
12511;SDS011;6321;53.798;10.382;2022-09-09T03:49:12;38.10;;;26.07;;
12511;SDS011;6321;53.798;10.382;2022-09-09T03:51:40;41.50;;;25.43;;
12511;SDS011;6321;53.798;10.382;2022-09-09T03:54:07;43.20;;;26.53;;
12511;SDS011;6321;53.798;10.382;2022-09-09T03:56:35;39.37;;;27.07;;
12511;SDS011;6321;53.798;10.382;2022-09-09T03:59:03;42.57;;;27.13;;
12511;SDS011;6321;53.798;10.382;2022-09-09T04:01:30;41.53;;;27.17;;
12511;SDS011;6321;53.798;10.382;2022-09-09T04:03:57;41.57;;;28.90;;
12511;SDS011;6321;53.798;10.382;2022-09-09T04:06:25;42.93;;;27.63;;
12511;SDS011;6321;53.798;10.382;2022-09-09T04:08:52;45.13;;;29.33;;
12511;SDS011;6321;53.798;10.382;2022-09-09T04:11:20;46.40;;;29.57;;
12511;SDS011;6321;53.798;10.382;2022-09-09T04:13:47;50.10;;;30.07;;
12511;SDS011;6321;53.798;10.382;2022-09-09T04:16:15;44.57;;;28.73;;
12511;SDS011;6321;53.798;10.382;2022-09-09T04:18:42;42.17;;;29.07;;
12511;SDS011;6321;53.798;10.382;2022-09-09T04:21:10;44.77;;;29.97;;
12511;SDS011;6321;53.798;10.382;2022-09-09T04:23:37;50.53;;;30.83;;
12511;SDS011;6321;53.798;10.382;2022-09-09T04:26:05;45.53;;;29.70;;
12511;SDS011;6321;53.798;10.382;2022-09-09T04:28:33;45.73;;;29.17;;
12511;SDS011;6321;53.798;10.382;2022-09-09T04:31:04;43.23;;;29.50;;
12511;SDS011;6321;53.798;10.382;2022-09-09T04:33:32;42.60;;;28.33;;
12511;SDS011;6321;53.798;10.382;2022-09-09T04:35:59;46.67;;;30.53;;
12511;SDS011;6321;53.798;10.382;2022-09-09T04:38:26;48.20;;;29.23;;
12511;SDS011;6321;53.798;10.382;2022-09-09T04:40:53;44.90;;;27.20;;
12511;SDS011;6321;53.798;10.382;2022-09-09T04:43:21;44.30;;;28.83;;
12511;SDS011;6321;53.798;10.382;2022-09-09T04:45:50;41.83;;;26.73;;
12511;SDS011;6321;53.798;10.382;2022-09-09T04:48:18;38.00;;;26.90;;
12511;SDS011;6321;53.798;10.382;2022-09-09T04:50:55;41.37;;;28.87;;
12511;SDS011;6321;53.798;10.382;2022-09-09T04:53:23;34.80;;;25.53;;
12511;SDS011;6321;53.798;10.382;2022-09-09T04:55:51;37.10;;;26.07;;
12511;SDS011;6321;53.798;10.382;2022-09-09T04:58:18;36.97;;;24.77;;
12511;SDS011;6321;53.798;10.382;2022-09-09T05:00:48;38.97;;;27.33;;
12511;SDS011;6321;53.798;10.382;2022-09-09T05:03:16;39.70;;;26.63;;
12511;SDS011;6321;53.798;10.382;2022-09-09T05:05:44;46.53;;;28.43;;
12511;SDS011;6321;53.798;10.382;2022-09-09T05:08:12;45.50;;;28.57;;
12511;SDS011;6321;53.798;10.382;2022-09-09T05:10:39;47.90;;;28.53;;
12511;SDS011;6321;53.798;10.382;2022-09-09T05:13:07;44.70;;;29.70;;
12511;SDS011;6321;53.798;10.382;2022-09-09T05:15:34;44.30;;;28.87;;
12511;SDS011;6321;53.798;10.382;2022-09-09T05:18:01;43.20;;;28.37;;
12511;SDS011;6321;53.798;10.382;2022-09-09T05:20:28;43.23;;;27.90;;
12511;SDS011;6321;53.798;10.382;2022-09-09T05:22:56;46.47;;;28.40;;
12511;SDS011;6321;53.798;10.382;2022-09-09T05:25:23;46.73;;;28.73;;
12511;SDS011;6321;53.798;10.382;2022-09-09T05:27:51;46.37;;;29.13;;
12511;SDS011;6321;53.798;10.382;2022-09-09T05:30:18;40.57;;;27.33;;
12511;SDS011;6321;53.798;10.382;2022-09-09T05:32:47;43.73;;;27.13;;
12511;SDS011;6321;53.798;10.382;2022-09-09T05:35:14;38.93;;;26.40;;
12511;SDS011;6321;53.798;10.382;2022-09-09T05:37:42;41.93;;;27.60;;
12511;SDS011;6321;53.798;10.382;2022-09-09T05:40:11;45.43;;;28.63;;
12511;SDS011;6321;53.798;10.382;2022-09-09T05:42:38;39.40;;;26.90;;
12511;SDS011;6321;53.798;10.382;2022-09-09T05:45:05;43.77;;;26.67;;
12511;SDS011;6321;53.798;10.382;2022-09-09T05:47:33;41.13;;;27.80;;
12511;SDS011;6321;53.798;10.382;2022-09-09T05:50:02;37.67;;;26.47;;
12511;SDS011;6321;53.798;10.382;2022-09-09T05:52:29;46.27;;;26.57;;
12511;SDS011;6321;53.798;10.382;2022-09-09T05:54:57;42.30;;;27.23;;
12511;SDS011;6321;53.798;10.382;2022-09-09T05:57:24;38.47;;;26.43;;
12511;SDS011;6321;53.798;10.382;2022-09-09T05:59:51;39.93;;;26.10;;
12511;SDS011;6321;53.798;10.382;2022-09-09T06:02:18;37.57;;;26.43;;
12511;SDS011;6321;53.798;10.382;2022-09-09T06:04:45;34.40;;;24.60;;
12511;SDS011;6321;53.798;10.382;2022-09-09T06:07:12;37.63;;;26.00;;
12511;SDS011;6321;53.798;10.382;2022-09-09T06:09:39;36.57;;;24.20;;
12511;SDS011;6321;53.798;10.382;2022-09-09T06:12:06;32.40;;;24.50;;
12511;SDS011;6321;53.798;10.382;2022-09-09T06:14:34;34.53;;;23.37;;
12511;SDS011;6321;53.798;10.382;2022-09-09T06:17:01;36.50;;;24.63;;
12511;SDS011;6321;53.798;10.382;2022-09-09T06:19:28;38.03;;;24.10;;
12511;SDS011;6321;53.798;10.382;2022-09-09T06:21:55;32.53;;;22.50;;
12511;SDS011;6321;53.798;10.382;2022-09-09T06:24:23;34.07;;;23.40;;
12511;SDS011;6321;53.798;10.382;2022-09-09T06:26:50;32.07;;;22.97;;
12511;SDS011;6321;53.798;10.382;2022-09-09T06:29:18;31.93;;;22.77;;
12511;SDS011;6321;53.798;10.382;2022-09-09T06:31:45;31.33;;;21.77;;
12511;SDS011;6321;53.798;10.382;2022-09-09T06:34:12;30.03;;;21.53;;
12511;SDS011;6321;53.798;10.382;2022-09-09T06:36:40;28.07;;;21.20;;
12511;SDS011;6321;53.798;10.382;2022-09-09T06:39:07;25.67;;;20.23;;
12511;SDS011;6321;53.798;10.382;2022-09-09T06:41:36;26.80;;;20.13;;
12511;SDS011;6321;53.798;10.382;2022-09-09T06:44:03;25.07;;;19.50;;
12511;SDS011;6321;53.798;10.382;2022-09-09T06:46:31;25.00;;;19.53;;
12511;SDS011;6321;53.798;10.382;2022-09-09T06:48:58;21.07;;;17.33;;
12511;SDS011;6321;53.798;10.382;2022-09-09T06:51:29;27.53;;;18.47;;
12511;SDS011;6321;53.798;10.382;2022-09-09T06:53:58;21.20;;;16.40;;
12511;SDS011;6321;53.798;10.382;2022-09-09T06:56:37;18.07;;;15.67;;
12511;SDS011;6321;53.798;10.382;2022-09-09T06:59:08;22.43;;;14.60;;
12511;SDS011;6321;53.798;10.382;2022-09-09T07:01:38;19.70;;;14.47;;
12511;SDS011;6321;53.798;10.382;2022-09-09T07:04:11;19.33;;;13.27;;
12511;SDS011;6321;53.798;10.382;2022-09-09T07:06:39;19.33;;;13.50;;
12511;SDS011;6321;53.798;10.382;2022-09-09T07:09:08;15.30;;;13.67;;
12511;SDS011;6321;53.798;10.382;2022-09-09T07:11:40;18.23;;;12.80;;
12511;SDS011;6321;53.798;10.382;2022-09-09T07:14:08;15.00;;;12.63;;
12511;SDS011;6321;53.798;10.382;2022-09-09T07:16:38;13.33;;;11.60;;
12511;SDS011;6321;53.798;10.382;2022-09-09T07:19:06;14.37;;;11.57;;
12511;SDS011;6321;53.798;10.382;2022-09-09T07:21:33;13.43;;;11.07;;
12511;SDS011;6321;53.798;10.382;2022-09-09T07:24:00;13.30;;;10.13;;
12511;SDS011;6321;53.798;10.382;2022-09-09T07:26:28;16.33;;;11.40;;
12511;SDS011;6321;53.798;10.382;2022-09-09T07:28:56;13.23;;;10.30;;
12511;SDS011;6321;53.798;10.382;2022-09-09T07:31:25;15.07;;;10.97;;
12511;SDS011;6321;53.798;10.382;2022-09-09T07:33:52;16.07;;;10.60;;
12511;SDS011;6321;53.798;10.382;2022-09-09T07:36:21;14.47;;;10.33;;
12511;SDS011;6321;53.798;10.382;2022-09-09T07:38:49;11.50;;;10.40;;
12511;SDS011;6321;53.798;10.382;2022-09-09T07:41:19;16.33;;;10.13;;
12511;SDS011;6321;53.798;10.382;2022-09-09T07:43:46;14.40;;;9.47;;
12511;SDS011;6321;53.798;10.382;2022-09-09T07:46:14;11.57;;;8.97;;
12511;SDS011;6321;53.798;10.382;2022-09-09T07:48:45;11.43;;;8.63;;
12511;SDS011;6321;53.798;10.382;2022-09-09T07:51:16;10.17;;;8.90;;
12511;SDS011;6321;53.798;10.382;2022-09-09T07:53:44;10.30;;;9.00;;
12511;SDS011;6321;53.798;10.382;2022-09-09T07:56:14;11.87;;;9.57;;
12511;SDS011;6321;53.798;10.382;2022-09-09T07:58:48;11.67;;;9.80;;
12511;SDS011;6321;53.798;10.382;2022-09-09T08:01:16;10.30;;;8.90;;
12511;SDS011;6321;53.798;10.382;2022-09-09T08:03:44;10.60;;;9.13;;
12511;SDS011;6321;53.798;10.382;2022-09-09T08:06:12;11.43;;;10.00;;
12511;SDS011;6321;53.798;10.382;2022-09-09T08:08:40;10.90;;;9.80;;
12511;SDS011;6321;53.798;10.382;2022-09-09T08:11:09;11.30;;;10.13;;
12511;SDS011;6321;53.798;10.382;2022-09-09T08:13:38;11.20;;;9.73;;
12511;SDS011;6321;53.798;10.382;2022-09-09T08:18:32;11.03;;;10.00;;
12511;SDS011;6321;53.798;10.382;2022-09-09T08:21:06;12.23;;;9.17;;
12511;SDS011;6321;53.798;10.382;2022-09-09T08:23:34;11.13;;;9.20;;
12511;SDS011;6321;53.798;10.382;2022-09-09T08:26:11;9.83;;;8.73;;
12511;SDS011;6321;53.798;10.382;2022-09-09T08:28:39;10.67;;;9.17;;
12511;SDS011;6321;53.798;10.382;2022-09-09T08:31:14;11.57;;;9.27;;
12511;SDS011;6321;53.798;10.382;2022-09-09T08:33:42;14.87;;;9.73;;
12511;SDS011;6321;53.798;10.382;2022-09-09T08:36:14;18.73;;;10.83;;
12511;SDS011;6321;53.798;10.382;2022-09-09T08:38:42;15.23;;;8.93;;
12511;SDS011;6321;53.798;10.382;2022-09-09T08:41:29;13.97;;;8.40;;
12511;SDS011;6321;53.798;10.382;2022-09-09T08:44:02;11.70;;;8.47;;
12511;SDS011;6321;53.798;10.382;2022-09-09T08:51:51;8.07;;;6.90;;
12511;SDS011;6321;53.798;10.382;2022-09-09T08:54:20;8.13;;;6.43;;
12511;SDS011;6321;53.798;10.382;2022-09-09T08:56:48;11.40;;;6.50;;
12511;SDS011;6321;53.798;10.382;2022-09-09T08:59:16;6.80;;;6.20;;
12511;SDS011;6321;53.798;10.382;2022-09-09T09:01:56;13.07;;;7.73;;
12511;SDS011;6321;53.798;10.382;2022-09-09T09:04:29;8.97;;;5.40;;
12511;SDS011;6321;53.798;10.382;2022-09-09T09:07:14;5.07;;;4.57;;
12511;SDS011;6321;53.798;10.382;2022-09-09T09:09:56;7.10;;;5.07;;
12511;SDS011;6321;53.798;10.382;2022-09-09T09:12:24;5.17;;;4.77;;
12511;SDS011;6321;53.798;10.382;2022-09-09T09:14:52;6.00;;;4.13;;
12511;SDS011;6321;53.798;10.382;2022-09-09T09:17:23;4.23;;;3.70;;
12511;SDS011;6321;53.798;10.382;2022-09-09T09:19:52;5.43;;;3.80;;
12511;SDS011;6321;53.798;10.382;2022-09-09T09:22:29;5.17;;;4.10;;
12511;SDS011;6321;53.798;10.382;2022-09-09T09:29:59;4.00;;;3.30;;
12511;SDS011;6321;53.798;10.382;2022-09-09T09:32:28;7.20;;;3.67;;
12511;SDS011;6321;53.798;10.382;2022-09-09T09:34:57;4.57;;;3.53;;
12511;SDS011;6321;53.798;10.382;2022-09-09T09:37:27;3.60;;;3.27;;
12511;SDS011;6321;53.798;10.382;2022-09-09T09:39:54;5.13;;;3.83;;
12511;SDS011;6321;53.798;10.382;2022-09-09T09:42:21;4.17;;;3.70;;
12511;SDS011;6321;53.798;10.382;2022-09-09T09:44:49;3.37;;;3.10;;
12511;SDS011;6321;53.798;10.382;2022-09-09T09:47:17;5.53;;;3.10;;
12511;SDS011;6321;53.798;10.382;2022-09-09T09:49:51;4.53;;;2.73;;
12511;SDS011;6321;53.798;10.382;2022-09-09T09:52:21;4.20;;;3.00;;
12511;SDS011;6321;53.798;10.382;2022-09-09T09:54:49;5.93;;;2.87;;
12511;SDS011;6321;53.798;10.382;2022-09-09T09:57:17;3.83;;;2.47;;
12511;SDS011;6321;53.798;10.382;2022-09-09T09:59:44;3.07;;;2.70;;
12511;SDS011;6321;53.798;10.382;2022-09-09T10:04:39;5.00;;;2.13;;
12511;SDS011;6321;53.798;10.382;2022-09-09T10:07:11;2.73;;;2.10;;
12511;SDS011;6321;53.798;10.382;2022-09-09T10:09:40;4.37;;;2.37;;
12511;SDS011;6321;53.798;10.382;2022-09-09T10:12:16;5.43;;;2.10;;
12511;SDS011;6321;53.798;10.382;2022-09-09T10:22:31;2.30;;;2.10;;
12511;SDS011;6321;53.798;10.382;2022-09-09T10:25:04;2.73;;;1.63;;
12511;SDS011;6321;53.798;10.382;2022-09-09T10:31:00;3.30;;;1.90;;
12511;SDS011;6321;53.798;10.382;2022-09-09T10:33:09;2.03;;;1.70;;
12511;SDS011;6321;53.798;10.382;2022-09-09T10:35:41;3.50;;;1.93;;
12511;SDS011;6321;53.798;10.382;2022-09-09T10:38:26;3.07;;;1.77;;
12511;SDS011;6321;53.798;10.382;2022-09-09T10:53:46;2.63;;;1.70;;
12511;SDS011;6321;53.798;10.382;2022-09-09T10:56:20;2.53;;;1.80;;
12511;SDS011;6321;53.798;10.382;2022-09-09T10:58:54;3.50;;;1.90;;
12511;SDS011;6321;53.798;10.382;2022-09-09T11:01:25;2.27;;;1.80;;
12511;SDS011;6321;53.798;10.382;2022-09-09T11:04:03;3.37;;;2.00;;
12511;SDS011;6321;53.798;10.382;2022-09-09T11:06:38;2.00;;;1.40;;
12511;SDS011;6321;53.798;10.382;2022-09-09T11:09:09;2.53;;;1.30;;
12511;SDS011;6321;53.798;10.382;2022-09-09T11:11:47;3.67;;;1.70;;
12511;SDS011;6321;53.798;10.382;2022-09-09T11:14:21;3.33;;;2.00;;
12511;SDS011;6321;53.798;10.382;2022-09-09T11:16:58;2.83;;;1.87;;
12511;SDS011;6321;53.798;10.382;2022-09-09T11:19:30;2.67;;;1.80;;
12511;SDS011;6321;53.798;10.382;2022-09-09T11:22:02;6.03;;;1.87;;
12511;SDS011;6321;53.798;10.382;2022-09-09T11:24:40;3.77;;;1.87;;
12511;SDS011;6321;53.798;10.382;2022-09-09T11:27:15;2.83;;;1.57;;
12511;SDS011;6321;53.798;10.382;2022-09-09T11:37:37;5.07;;;2.10;;
12511;SDS011;6321;53.798;10.382;2022-09-09T11:40:14;2.23;;;1.50;;
12511;SDS011;6321;53.798;10.382;2022-09-09T11:42:45;3.10;;;1.67;;
12511;SDS011;6321;53.798;10.382;2022-09-09T11:45:22;2.77;;;1.80;;
12511;SDS011;6321;53.798;10.382;2022-09-09T11:47:51;2.90;;;1.90;;
12511;SDS011;6321;53.798;10.382;2022-09-09T11:52:48;3.27;;;1.80;;
12511;SDS011;6321;53.798;10.382;2022-09-09T11:55:25;3.93;;;1.70;;
12511;SDS011;6321;53.798;10.382;2022-09-09T11:57:59;2.73;;;1.50;;
12511;SDS011;6321;53.798;10.382;2022-09-09T12:00:38;4.10;;;1.70;;
12511;SDS011;6321;53.798;10.382;2022-09-09T12:03:31;4.00;;;1.40;;
12511;SDS011;6321;53.798;10.382;2022-09-09T12:05:57;3.17;;;1.57;;
12511;SDS011;6321;53.798;10.382;2022-09-09T12:08:27;2.90;;;1.50;;
12511;SDS011;6321;53.798;10.382;2022-09-09T12:10:57;2.70;;;1.60;;
12511;SDS011;6321;53.798;10.382;2022-09-09T12:13:28;2.83;;;1.57;;
12511;SDS011;6321;53.798;10.382;2022-09-09T12:15:57;3.40;;;1.57;;
12511;SDS011;6321;53.798;10.382;2022-09-09T12:18:34;3.43;;;1.60;;
12511;SDS011;6321;53.798;10.382;2022-09-09T12:21:20;1.30;;;1.20;;
12511;SDS011;6321;53.798;10.382;2022-09-09T12:24:10;2.43;;;1.30;;
12511;SDS011;6321;53.798;10.382;2022-09-09T12:29:36;2.70;;;1.70;;
12511;SDS011;6321;53.798;10.382;2022-09-09T12:32:15;2.67;;;1.60;;
12511;SDS011;6321;53.798;10.382;2022-09-09T12:35:04;2.70;;;1.53;;
12511;SDS011;6321;53.798;10.382;2022-09-09T12:37:45;3.27;;;1.80;;
12511;SDS011;6321;53.798;10.382;2022-09-09T12:42:47;2.20;;;1.40;;
12511;SDS011;6321;53.798;10.382;2022-09-09T12:45:20;3.13;;;1.40;;
12511;SDS011;6321;53.798;10.382;2022-09-09T12:48:28;2.27;;;1.67;;
12511;SDS011;6321;53.798;10.382;2022-09-09T12:50:50;2.00;;;1.63;;
12511;SDS011;6321;53.798;10.382;2022-09-09T12:53:30;2.20;;;1.40;;
12511;SDS011;6321;53.798;10.382;2022-09-09T12:56:09;3.10;;;1.73;;
12511;SDS011;6321;53.798;10.382;2022-09-09T12:58:47;2.97;;;1.70;;
12511;SDS011;6321;53.798;10.382;2022-09-09T13:01:18;1.97;;;1.70;;
12511;SDS011;6321;53.798;10.382;2022-09-09T13:03:48;2.43;;;1.60;;
12511;SDS011;6321;53.798;10.382;2022-09-09T13:06:19;5.40;;;2.10;;
12511;SDS011;6321;53.798;10.382;2022-09-09T13:08:49;1.93;;;1.73;;
12511;SDS011;6321;53.798;10.382;2022-09-09T13:11:31;2.27;;;1.60;;
12511;SDS011;6321;53.798;10.382;2022-09-09T13:14:03;3.03;;;1.90;;
12511;SDS011;6321;53.798;10.382;2022-09-09T13:16:34;4.60;;;1.73;;
12511;SDS011;6321;53.798;10.382;2022-09-09T13:19:13;4.27;;;1.80;;
12511;SDS011;6321;53.798;10.382;2022-09-09T13:21:43;1.93;;;1.83;;
12511;SDS011;6321;53.798;10.382;2022-09-09T13:24:31;4.93;;;1.80;;
12511;SDS011;6321;53.798;10.382;2022-09-09T13:27:01;2.57;;;1.63;;
12511;SDS011;6321;53.798;10.382;2022-09-09T13:29:31;3.20;;;1.50;;
12511;SDS011;6321;53.798;10.382;2022-09-09T13:32:05;2.73;;;1.77;;
12511;SDS011;6321;53.798;10.382;2022-09-09T13:34:34;3.37;;;1.70;;
12511;SDS011;6321;53.798;10.382;2022-09-09T13:37:06;3.10;;;2.00;;
12511;SDS011;6321;53.798;10.382;2022-09-09T13:39:50;2.20;;;1.93;;
12511;SDS011;6321;53.798;10.382;2022-09-09T13:42:38;4.10;;;1.97;;
12511;SDS011;6321;53.798;10.382;2022-09-09T13:45:15;2.20;;;1.70;;
12511;SDS011;6321;53.798;10.382;2022-09-09T13:47:48;1.87;;;1.77;;
12511;SDS011;6321;53.798;10.382;2022-09-09T13:52:48;2.93;;;2.10;;
12511;SDS011;6321;53.798;10.382;2022-09-09T13:55:18;2.83;;;2.00;;
12511;SDS011;6321;53.798;10.382;2022-09-09T13:57:57;2.67;;;2.10;;
12511;SDS011;6321;53.798;10.382;2022-09-09T14:00:25;2.43;;;2.00;;
12511;SDS011;6321;53.798;10.382;2022-09-09T14:02:54;6.23;;;2.20;;
12511;SDS011;6321;53.798;10.382;2022-09-09T14:05:26;3.13;;;2.27;;
12511;SDS011;6321;53.798;10.382;2022-09-09T14:07:55;3.30;;;2.30;;
12511;SDS011;6321;53.798;10.382;2022-09-09T14:10:25;2.73;;;2.30;;
12511;SDS011;6321;53.798;10.382;2022-09-09T14:12:54;3.97;;;2.80;;
12511;SDS011;6321;53.798;10.382;2022-09-09T14:15:23;2.50;;;2.20;;
12511;SDS011;6321;53.798;10.382;2022-09-09T14:17:52;3.70;;;2.53;;
12511;SDS011;6321;53.798;10.382;2022-09-09T14:20:20;2.87;;;2.03;;
12511;SDS011;6321;53.798;10.382;2022-09-09T14:22:49;3.23;;;2.73;;
12511;SDS011;6321;53.798;10.382;2022-09-09T14:25:16;5.00;;;2.80;;
12511;SDS011;6321;53.798;10.382;2022-09-09T14:27:45;5.27;;;2.57;;
12511;SDS011;6321;53.798;10.382;2022-09-09T14:30:16;3.87;;;2.53;;
12511;SDS011;6321;53.798;10.382;2022-09-09T14:32:44;2.93;;;2.63;;
12511;SDS011;6321;53.798;10.382;2022-09-09T14:35:15;7.13;;;2.70;;
12511;SDS011;6321;53.798;10.382;2022-09-09T14:37:43;4.07;;;2.77;;
12511;SDS011;6321;53.798;10.382;2022-09-09T14:40:11;3.67;;;2.40;;
12511;SDS011;6321;53.798;10.382;2022-09-09T14:42:39;3.80;;;2.73;;
12511;SDS011;6321;53.798;10.382;2022-09-09T14:45:08;5.63;;;2.73;;
12511;SDS011;6321;53.798;10.382;2022-09-09T14:47:37;6.27;;;3.30;;
12511;SDS011;6321;53.798;10.382;2022-09-09T14:50:06;4.03;;;2.90;;
12511;SDS011;6321;53.798;10.382;2022-09-09T14:52:36;3.93;;;2.30;;
12511;SDS011;6321;53.798;10.382;2022-09-09T14:55:05;3.53;;;2.50;;
12511;SDS011;6321;53.798;10.382;2022-09-09T14:57:34;4.43;;;2.53;;
12511;SDS011;6321;53.798;10.382;2022-09-09T15:00:05;6.07;;;2.20;;
12511;SDS011;6321;53.798;10.382;2022-09-09T15:02:33;2.70;;;2.50;;
12511;SDS011;6321;53.798;10.382;2022-09-09T15:05:01;3.17;;;2.70;;
12511;SDS011;6321;53.798;10.382;2022-09-09T15:07:30;4.03;;;2.83;;
12511;SDS011;6321;53.798;10.382;2022-09-09T15:09:57;3.23;;;2.40;;
12511;SDS011;6321;53.798;10.382;2022-09-09T15:12:24;4.70;;;2.80;;
12511;SDS011;6321;53.798;10.382;2022-09-09T15:14:53;3.87;;;2.17;;
12511;SDS011;6321;53.798;10.382;2022-09-09T15:17:20;2.90;;;2.17;;
12511;SDS011;6321;53.798;10.382;2022-09-09T15:19:49;4.27;;;2.10;;
12511;SDS011;6321;53.798;10.382;2022-09-09T15:22:17;4.60;;;2.50;;
12511;SDS011;6321;53.798;10.382;2022-09-09T15:24:44;3.87;;;2.67;;
12511;SDS011;6321;53.798;10.382;2022-09-09T15:27:12;4.07;;;2.40;;
12511;SDS011;6321;53.798;10.382;2022-09-09T15:29:41;3.43;;;2.33;;
12511;SDS011;6321;53.798;10.382;2022-09-09T15:32:09;3.87;;;2.27;;
12511;SDS011;6321;53.798;10.382;2022-09-09T15:34:36;4.03;;;2.20;;
12511;SDS011;6321;53.798;10.382;2022-09-09T15:37:03;4.23;;;2.10;;
12511;SDS011;6321;53.798;10.382;2022-09-09T15:39:31;3.37;;;2.20;;
12511;SDS011;6321;53.798;10.382;2022-09-09T15:42:00;2.50;;;2.00;;
12511;SDS011;6321;53.798;10.382;2022-09-09T15:44:28;2.53;;;2.33;;
12511;SDS011;6321;53.798;10.382;2022-09-09T15:46:56;3.73;;;1.80;;
12511;SDS011;6321;53.798;10.382;2022-09-09T15:49:23;4.77;;;2.17;;
12511;SDS011;6321;53.798;10.382;2022-09-09T15:51:52;2.63;;;2.13;;
12511;SDS011;6321;53.798;10.382;2022-09-09T15:54:20;2.50;;;2.23;;
12511;SDS011;6321;53.798;10.382;2022-09-09T15:56:52;3.93;;;2.10;;
12511;SDS011;6321;53.798;10.382;2022-09-09T15:59:21;2.03;;;1.80;;
12511;SDS011;6321;53.798;10.382;2022-09-09T16:01:48;2.50;;;1.90;;
12511;SDS011;6321;53.798;10.382;2022-09-09T16:04:16;3.17;;;1.90;;
12511;SDS011;6321;53.798;10.382;2022-09-09T16:06:50;2.70;;;2.33;;
12511;SDS011;6321;53.798;10.382;2022-09-09T16:09:18;4.97;;;2.30;;
12511;SDS011;6321;53.798;10.382;2022-09-09T16:11:45;3.50;;;2.10;;
12511;SDS011;6321;53.798;10.382;2022-09-09T16:14:13;1.70;;;1.50;;
12511;SDS011;6321;53.798;10.382;2022-09-09T16:16:41;3.20;;;2.00;;
12511;SDS011;6321;53.798;10.382;2022-09-09T16:19:09;1.97;;;1.87;;
12511;SDS011;6321;53.798;10.382;2022-09-09T16:21:41;3.93;;;2.17;;
12511;SDS011;6321;53.798;10.382;2022-09-09T16:24:10;2.70;;;1.80;;